Silverwood, Michigan
Current Conditions -  °F | °C
As of 10:45 AM on Sunday 23 Nov 2014 (Local Time) from KCFS Reporting Station
Overcast Overcast  
Wind Chill: 50°   Ceiling: 3000
Heat Index: 50°   Visibility: 10mi
Dew Point: 45°   Wind: 14mph
Humidity: 82%   Direction: 180°S
Pressure: 29.87"   Gusts: NA
Location:  43.32°N, 83.25°W
Report Text: KCFS 231545Z AUTO 18012KT 10SM BKN030 BKN039 OVC060 10/07 A2987 RMK AO2
Loading
Personal Weather Stations






























Interactive Weather Map New forecast layout! Learn more

10-Day Weather Forecast

Advertisements
Track Severe Weather on mobile